PST,Max TemperatureF,Mean TemperatureF,Min TemperatureF,Max Dew PointF,MeanDew PointF,Min DewpointF,Max Humidity, Mean Humidity, Min Humidity, Max Sea Level PressureIn, Mean Sea Level PressureIn, Min Sea Level PressureIn, Max VisibilityMiles, Mean VisibilityMiles, Min VisibilityMiles, Max Wind SpeedMPH, Mean Wind SpeedMPH, Max Gust SpeedMPH,PrecipitationIn, CloudCover, Events, WindDirDegrees
2012-11-1,61,58,55,54,52,48,93,83,72,30.08,30.00,29.91,10,9,7,18,12,28,0.00,5,,149
2012-11-2,63,55,47,54,49,46,100,82,64,30.06,30.04,30.00,10,10,5,12,6,,0.06,5,Rain,118
2012-11-3,67,60,52,56,54,52,100,82,63,30.22,30.16,30.05,10,10,8,15,4,28,0.00,6,,156
2012-11-4,66,59,51,57,53,50,100,87,73,30.32,30.27,30.23,10,3,0,12,4,16,0.00,5,Fog-Rain,330
2012-11-5,63,56,48,57,53,50,100,92,84,30.27,30.15,30.05,8,2,0,13,5,26,0.00,2,Fog-Rain,343
2012-11-6,67,57,47,57,52,46,100,89,78,30.14,30.07,30.05,9,3,0,17,7,30,T,2,Fog-Rain,336
2012-11-7,58,54,49,54,49,44,93,82,71,30.15,30.10,29.98,10,9,7,21,13,32,0.00,6,,329
2012-11-8,50,44,38,45,41,37,100,93,86,29.96,29.86,29.82,10,8,1,17,5,32,0.94,7,Rain,102
2012-11-9,50,45,39,43,39,37,100,86,71,30.00,29.96,29.91,10,10,5,16,5,22,0.11,7,Rain,113
2012-11-10,52,45,38,43,39,37,100,83,66,30.27,30.15,30.01,10,10,10,13,6,15,T,4,Rain,104
2012-11-11,55,48,40,39,38,36,92,71,50,30.35,30.31,30.27,10,10,10,16,9,22,T,7,,123
2012-11-12,60,56,51,52,48,42,100,80,59,30.32,30.27,30.25,10,9,2,24,14,35,0.08,8,Rain,145
2012-11-13,59,54,48,54,51,46,100,88,75,30.25,30.20,30.16,10,8,2,10,3,,T,4,Rain,136
2012-11-14,60,53,46,51,47,44,100,84,67,30.19,30.15,30.07,10,8,1,13,5,32,0.00,0,,21
2012-11-15,62,53,44,50,46,41,93,77,60,30.04,29.98,29.93,10,10,8,9,4,12,0.00,0,,42
2012-11-16,62,54,45,52,48,44,93,74,55,29.96,29.88,29.78,10,8,2,17,8,20,0.46,6,Rain,132
2012-11-17,58,53,47,54,49,44,100,89,77,29.96,29.78,29.70,10,6,0,25,11,36,1.39,8,Fog-Rain,165
2012-11-18,55,53,50,47,45,42,83,75,66,29.97,29.95,29.91,10,9,5,31,22,43,0.26,8,Rain,146
2012-11-19,60,57,53,55,52,46,100,86,72,29.92,29.85,29.78,10,5,1,41,29,55,0.42,8,Rain,181
2012-11-20,59,56,53,56,54,50,100,93,86,29.88,29.81,29.73,10,4,1,39,20,48,1.55,8,Rain-Thunderstorm,175
2012-11-21,59,52,44,51,46,40,93,85,77,30.30,30.17,29.87,10,9,5,30,9,41,0.12,5,Rain,156
2012-11-22,57,49,41,45,41,36,96,78,59,30.33,30.29,30.27,10,9,5,8,4,32,0.00,0,,91
2012-11-23,60,50,40,50,44,39,93,75,57,30.32,30.29,30.26,10,10,6,9,4,,0.00,2,,112
2012-11-24,56,54,52,54,51,46,96,87,77,30.27,30.19,30.13,10,4,1,10,4,,0.16,8,Rain,150
2012-11-25,56,50,43,52,50,43,100,89,77,30.14,30.08,29.97,10,5,0,10,4,,0.00,6,Fog-Rain,341
2012-11-26,58,54,49,50,48,46,100,86,72,30.06,30.03,29.99,10,9,4,18,5,38,0.01,8,Rain,139
2012-11-27,59,54,49,49,47,46,93,80,67,30.04,29.95,29.78,10,10,10,8,4,26,0.00,3,,86
2012-11-28,60,55,50,52,49,45,93,80,67,29.79,29.71,29.58,10,8,2,33,18,43,0.88,7,Rain,143
2012-11-29,60,56,52,56,52,44,96,77,57,29.72,29.62,29.55,10,4,1,33,22,43,4.14,8,Rain,164
2012-11-30,60,57,54,55,53,49,93,83,72,29.69,29.64,29.55,10,6,1,41,23,49,0.53,8,Rain-Thunderstorm,173